createdAt,value
2023-02-23T00:05:48.166Z,3.57
2023-02-23T00:15:55.396Z,4.27
2023-02-23T00:25:59.534Z,3.87
2023-02-23T00:36:11.324Z,4.20
2023-02-23T00:46:19.661Z,4.47
2023-02-23T00:56:24.870Z,4.77
2023-02-23T01:06:28.636Z,4.00
2023-02-23T01:16:35.820Z,3.57
2023-02-23T01:26:42.275Z,4.20
2023-02-23T01:36:47.226Z,3.67
2023-02-23T01:46:51.046Z,3.93
2023-02-23T01:57:00.000Z,3.80
2023-02-23T02:07:05.724Z,3.33
2023-02-23T02:17:25.535Z,3.33
2023-02-23T02:28:03.870Z,5.03
2023-02-23T02:38:20.929Z,3.53
2023-02-23T02:48:42.151Z,4.40
2023-02-23T02:58:50.118Z,3.13
2023-02-23T03:09:22.226Z,3.73
2023-02-23T03:19:48.993Z,4.07
2023-02-23T03:30:17.352Z,3.30
2023-02-23T03:40:44.051Z,4.37
2023-02-23T03:51:11.841Z,3.17
2023-02-23T04:01:37.186Z,3.10
2023-02-23T04:12:06.121Z,3.83
2023-02-23T04:22:11.082Z,3.50
2023-02-23T04:32:18.634Z,3.00
2023-02-23T04:42:23.926Z,3.93
2023-02-23T04:52:28.739Z,4.33
2023-02-23T05:02:33.800Z,4.43
2023-02-23T05:12:37.396Z,3.90
2023-02-23T05:22:42.625Z,5.17
2023-02-23T05:32:46.148Z,5.33
2023-02-23T05:42:51.241Z,3.60
2023-02-23T05:52:54.912Z,4.40
2023-02-23T06:02:59.969Z,4.50
2023-02-23T06:13:03.928Z,4.87
2023-02-23T06:23:09.100Z,4.93
2023-02-23T06:33:12.746Z,4.63
2023-02-23T06:43:17.889Z,4.60
2023-02-23T06:53:23.122Z,5.27
2023-02-23T07:03:28.290Z,5.20
2023-02-23T07:13:32.135Z,5.50
2023-02-23T07:23:37.425Z,5.27
2023-02-23T07:33:43.713Z,6.33
2023-02-23T07:43:48.758Z,5.97
2023-02-23T07:53:52.456Z,6.50
2023-02-23T08:03:57.687Z,5.53
2023-02-23T08:14:01.473Z,5.67
2023-02-23T08:24:08.000Z,5.13
2023-02-23T08:34:11.777Z,7.33
2023-02-23T08:44:16.697Z,8.20
2023-02-23T08:54:20.458Z,6.53
2023-02-23T09:04:25.437Z,6.53
2023-02-23T09:14:30.112Z,6.93
2023-02-23T09:24:35.105Z,5.60
2023-02-23T09:34:39.117Z,6.60
2023-02-23T09:45:07.146Z,7.40
2023-02-23T09:55:14.093Z,7.50
2023-02-23T10:05:19.944Z,8.00
2023-02-23T10:15:35.632Z,7.80
2023-02-23T10:25:46.736Z,6.83
2023-02-23T10:36:07.205Z,7.70
2023-02-23T10:46:23.564Z,7.50
2023-02-23T10:56:27.468Z,7.40
2023-02-23T11:06:35.676Z,7.77
2023-02-23T11:16:40.697Z,7.50
2023-02-23T11:26:48.008Z,6.50
2023-02-23T11:37:02.406Z,6.03
2023-02-23T11:47:15.735Z,6.50
2023-02-23T11:57:23.302Z,5.93
2023-02-23T12:07:38.765Z,6.37
2023-02-23T12:17:50.129Z,5.57
2023-02-23T12:28:18.285Z,4.53
2023-02-23T12:38:34.573Z,4.37
2023-02-23T12:48:51.090Z,4.13
2023-02-23T12:59:13.468Z,4.07
2023-02-23T13:09:38.871Z,3.20
2023-02-23T13:19:52.864Z,3.07
2023-02-23T13:29:59.406Z,2.50
2023-02-23T13:40:21.176Z,3.37
2023-02-23T13:50:32.941Z,2.03
2023-02-23T14:00:36.605Z,1.50
2023-02-23T14:10:45.220Z,1.60
2023-02-23T14:20:57.828Z,1.00
2023-02-23T14:31:10.076Z,1.27
2023-02-23T14:41:14.192Z,1.47
2023-02-23T14:51:26.604Z,2.47
2023-02-23T15:01:36.414Z,2.23
2023-02-23T15:11:43.638Z,2.70
2023-02-23T15:21:52.886Z,2.93
2023-02-23T15:31:58.660Z,2.83
2023-02-23T15:42:04.575Z,3.30
2023-02-23T15:52:15.697Z,3.53
2023-02-23T16:02:21.454Z,2.57
2023-02-23T16:12:31.990Z,2.10
2023-02-23T16:22:38.488Z,2.03
2023-02-23T16:32:45.148Z,2.00
2023-02-23T16:42:49.082Z,2.53
2023-02-23T16:52:54.846Z,2.87
2023-02-23T17:03:00.663Z,2.50
2023-02-23T17:13:16.331Z,2.03
2023-02-23T17:23:21.205Z,1.70
2023-02-23T17:33:27.941Z,1.77
2023-02-23T17:43:31.889Z,2.57
2023-02-23T17:53:37.528Z,2.40
2023-02-23T18:03:41.340Z,3.57
2023-02-23T18:13:48.055Z,3.77
2023-02-23T18:23:52.874Z,3.63
2023-02-23T18:34:00.291Z,3.27
2023-02-23T18:44:07.017Z,3.53
2023-02-23T18:54:18.421Z,3.27
2023-02-23T19:04:22.395Z,5.03
2023-02-23T19:14:47.774Z,4.40
2023-02-23T19:24:51.175Z,3.83
2023-02-23T19:34:56.096Z,3.40
2023-02-23T19:45:00.551Z,3.03
2023-02-23T19:55:06.878Z,3.33
2023-02-23T20:05:12.023Z,3.77
2023-02-23T20:15:17.156Z,4.30
2023-02-23T20:25:21.324Z,4.63
2023-02-23T20:35:27.297Z,4.27
2023-02-23T20:45:31.157Z,4.60
2023-02-23T20:55:36.262Z,3.43
2023-02-23T21:05:41.743Z,3.87
2023-02-23T21:15:47.736Z,2.97
2023-02-23T21:25:53.049Z,4.13
2023-02-23T21:36:00.854Z,3.13
2023-02-23T21:46:08.791Z,4.47
2023-02-23T21:56:16.866Z,3.90
2023-02-23T22:06:24.344Z,6.17
2023-02-23T22:16:32.182Z,3.70
2023-02-23T22:26:38.093Z,7.47
2023-02-23T22:36:43.457Z,4.97
2023-02-23T22:46:48.169Z,4.37
2023-02-23T22:56:53.326Z,3.50
2023-02-23T23:06:58.152Z,4.57
2023-02-23T23:17:03.182Z,4.80
2023-02-23T23:27:08.200Z,4.30
2023-02-23T23:37:13.899Z,3.73
2023-02-23T23:47:17.775Z,3.60
2023-02-23T23:57:22.675Z,4.27
